Time;durP1;ratioP1;P1;durP2;ratioP2;P2;SDS_P1;SDS_P2;PMS_P1;PMS_P2;Temp;Humidity;BMP_temperature;BMP_pressure;BME280_temperature;BME280_humidity;BME280_pressure;Samples;Min_cycle;Max_cycle;Signal;HPM_P1;HPM_P2
2021/07/05 00:00:26;;;;;;;3.78;2.72;;;15.60;88.30;;;;;;5092657;28;20453;-81
2021/07/05 00:02:52;;;;;;;3.45;2.45;;;15.60;88.40;;;;;;5074823;28;20431;-80
2021/07/05 00:05:19;;;;;;;4.15;2.72;;;15.50;88.40;;;;;;5093121;28;20775;-80
2021/07/05 00:07:48;;;;;;;3.20;2.40;;;15.50;88.60;;;;;;5092596;28;20405;-78
2021/07/05 00:10:16;;;;;;;5.97;2.30;;;15.40;88.70;;;;;;5092673;28;20370;-79
2021/07/05 00:12:45;;;;;;;3.17;2.30;;;15.40;88.80;;;;;;5074378;28;20393;-80
2021/07/05 00:15:13;;;;;;;4.93;2.00;;;15.40;88.80;;;;;;5091662;28;20406;-79
2021/07/05 00:17:39;;;;;;;3.08;2.00;;;15.50;88.70;;;;;;5092508;28;20465;-80
2021/07/05 00:20:07;;;;;;;2.78;2.20;;;15.50;88.90;;;;;;5074335;28;20379;-80
2021/07/05 00:22:32;;;;;;;6.88;1.80;;;15.50;88.80;;;;;;5092237;28;20396;-80
2021/07/05 00:24:58;;;;;;;3.20;1.87;;;15.50;88.60;;;;;;5092874;28;20382;-80
2021/07/05 00:27:23;;;;;;;2.50;1.70;;;15.50;88.60;;;;;;5092299;28;20374;-81
2021/07/05 00:29:49;;;;;;;2.33;1.60;;;15.50;88.70;;;;;;5090931;28;20408;-80
2021/07/05 00:32:15;;;;;;;3.17;1.60;;;15.50;88.60;;;;;;5092294;28;21036;-80
2021/07/05 00:34:40;;;;;;;3.70;1.77;;;15.40;88.90;;;;;;5092459;28;20465;-81
2021/07/05 00:37:06;;;;;;;1.98;1.60;;;15.50;88.90;;;;;;5073968;28;20887;-80
2021/07/05 00:39:31;;;;;;;3.60;1.50;;;15.60;88.70;;;;;;5073853;28;20378;-80
2021/07/05 00:41:57;;;;;;;1.73;1.50;;;15.50;88.80;;;;;;5092105;28;20405;-79
2021/07/05 00:44:22;;;;;;;1.85;1.40;;;15.40;88.80;;;;;;5092150;28;20382;-79
2021/07/05 00:46:48;;;;;;;5.38;1.48;;;15.40;89.20;;;;;;5074400;28;20386;-81
2021/07/05 00:49:14;;;;;;;2.03;1.37;;;15.40;89.20;;;;;;5091629;28;20846;-80
2021/07/05 00:51:39;;;;;;;2.53;1.30;;;15.40;89.30;;;;;;5092274;28;20723;-80
2021/07/05 00:54:05;;;;;;;2.33;1.38;;;15.40;89.50;;;;;;5073793;28;20493;-79
2021/07/05 00:56:30;;;;;;;3.60;1.40;;;15.40;89.30;;;;;;5074159;28;20839;-81
2021/07/05 00:58:59;;;;;;;6.65;1.33;;;15.40;89.50;;;;;;5091538;28;20881;-80
2021/07/05 01:01:24;;;;;;;5.53;1.50;;;15.40;89.40;;;;;;5091935;28;20381;-79
2021/07/05 01:03:50;;;;;;;3.45;1.95;;;15.40;89.10;;;;;;5092402;28;20385;-80
2021/07/05 01:06:15;;;;;;;3.58;1.55;;;15.40;89.30;;;;;;5092020;28;20457;-79
2021/07/05 01:08:41;;;;;;;1.57;1.40;;;15.40;89.40;;;;;;5091794;28;20749;-80
2021/07/05 01:11:07;;;;;;;2.00;1.40;;;15.40;89.60;;;;;;5091564;28;20738;-79
2021/07/05 01:13:32;;;;;;;3.30;1.50;;;15.30;89.80;;;;;;5092256;28;20585;-79
2021/07/05 01:15:58;;;;;;;5.40;1.70;;;15.40;89.60;;;;;;5091645;28;20374;-80
2021/07/05 01:18:23;;;;;;;4.00;1.30;;;15.40;89.50;;;;;;5091782;28;20427;-79
2021/07/05 01:20:49;;;;;;;2.70;1.47;;;15.30;89.70;;;;;;5090876;28;20860;-80
2021/07/05 01:23:14;;;;;;;3.47;1.60;;;15.40;89.40;;;;;;5091376;28;20430;-80
2021/07/05 01:25:41;;;;;;;4.50;1.50;;;15.30;89.50;;;;;;5073300;28;20378;-80
2021/07/05 01:28:08;;;;;;;2.60;1.40;;;15.30;89.40;;;;;;5091481;28;20751;-79
2021/07/05 01:30:35;;;;;;;2.13;1.47;;;15.30;89.40;;;;;;5090890;28;20428;-79
2021/07/05 01:33:06;;;;;;;2.50;1.70;;;15.20;89.90;;;;;;5091010;28;20903;-78
2021/07/05 01:35:32;;;;;;;3.22;1.70;;;15.10;90.00;;;;;;5091416;28;20362;-79
2021/07/05 01:37:59;;;;;;;2.30;2.00;;;15.10;90.40;;;;;;5072561;28;20398;-79
2021/07/05 01:40:26;;;;;;;4.05;2.03;;;15.10;90.70;;;;;;5091098;28;20374;-79
2021/07/05 01:42:56;;;;;;;3.90;2.00;;;15.10;91.10;;;;;;5090867;28;20937;-80
2021/07/05 01:45:29;;;;;;;3.80;1.85;;;15.10;91.10;;;;;;5091482;28;20362;-81
2021/07/05 01:47:55;;;;;;;4.43;2.30;;;15.20;90.70;;;;;;5090239;28;20613;-79
2021/07/05 01:50:22;;;;;;;3.87;1.70;;;15.30;90.40;;;;;;5090330;28;20370;-79
2021/07/05 01:52:48;;;;;;;2.90;1.80;;;15.30;90.20;;;;;;5090393;28;20374;-79
2021/07/05 01:55:15;;;;;;;3.08;1.83;;;15.30;90.20;;;;;;5072569;28;21082;-80
2021/07/05 01:57:41;;;;;;;2.50;2.10;;;15.30;90.30;;;;;;5072349;28;20428;-79
2021/07/05 02:00:09;;;;;;;5.20;2.20;;;15.30;90.30;;;;;;5072249;28;20398;-80
2021/07/05 02:02:34;;;;;;;3.50;2.28;;;15.20;90.90;;;;;;5090923;28;20381;-80
2021/07/05 02:05:00;;;;;;;2.93;1.83;;;15.30;90.60;;;;;;5090295;28;20882;-80
2021/07/05 02:07:25;;;;;;;4.20;1.95;;;15.20;90.80;;;;;;5072442;28;20382;-80
2021/07/05 02:09:51;;;;;;;3.10;1.97;;;15.20;90.80;;;;;;5090305;28;20409;-78
2021/07/05 02:12:17;;;;;;;6.47;2.30;;;15.10;91.10;;;;;;5090762;28;20401;-78
2021/07/05 02:14:43;;;;;;;3.45;1.88;;;15.20;91.10;;;;;;5090653;28;20381;-79
2021/07/05 02:17:10;;;;;;;4.40;2.65;;;15.30;90.90;;;;;;5090584;28;20374;-78
2021/07/05 02:19:37;;;;;;;3.03;1.90;;;15.30;90.90;;;;;;5090052;28;20727;-79
2021/07/05 02:22:04;;;;;;;3.60;1.83;;;15.20;91.00;;;;;;5090717;28;20702;-80
2021/07/05 02:24:30;;;;;;;3.08;1.88;;;15.20;91.20;;;;;;5090341;28;20381;-79
2021/07/05 02:26:56;;;;;;;3.05;1.70;;;15.20;91.10;;;;;;5090208;28;20369;-80
2021/07/05 02:29:21;;;;;;;3.50;1.88;;;15.20;91.00;;;;;;5090317;28;20375;-80
2021/07/05 02:31:47;;;;;;;1.93;1.73;;;15.20;91.00;;;;;;5090776;28;20398;-79
2021/07/05 02:34:13;;;;;;;4.20;1.90;;;15.20;91.10;;;;;;5076664;28;20390;-79
2021/07/05 02:36:38;;;;;;;4.97;1.90;;;15.20;91.40;;;;;;5094256;28;20740;-78
2021/07/05 02:39:05;;;;;;;4.90;1.80;;;15.20;91.30;;;;;;5076288;28;20378;-79
2021/07/05 02:41:31;;;;;;;2.67;1.80;;;15.20;91.10;;;;;;5094326;28;20846;-78
2021/07/05 02:43:57;;;;;;;4.07;1.85;;;15.30;91.00;;;;;;5094567;28;20378;-79
2021/07/05 02:46:22;;;;;;;3.00;1.70;;;15.20;91.10;;;;;;5094654;28;20431;-80
2021/07/05 02:48:48;;;;;;;4.63;1.60;;;15.20;91.10;;;;;;5092670;28;20397;-79
2021/07/05 02:51:13;;;;;;;1.83;1.70;;;15.20;91.30;;;;;;5094173;28;20508;-80
2021/07/05 02:53:39;;;;;;;3.53;1.50;;;15.20;91.00;;;;;;5076167;28;20381;-79
2021/07/05 02:56:05;;;;;;;3.47;1.70;;;15.20;91.10;;;;;;5094169;28;20741;-80
2021/07/05 02:58:32;;;;;;;5.72;1.80;;;15.20;91.30;;;;;;5093787;28;20886;-80
2021/07/05 03:01:00;;;;;;;2.92;1.50;;;15.20;91.20;;;;;;5076477;28;20385;-80
2021/07/05 03:03:26;;;;;;;4.32;1.88;;;15.20;91.30;;;;;;5075591;28;20753;-79
2021/07/05 03:05:52;;;;;;;4.22;1.67;;;15.20;91.10;;;;;;5093969;28;20834;-80
2021/07/05 03:08:18;;;;;;;2.53;1.70;;;15.20;91.00;;;;;;5093611;28;20373;-79
2021/07/05 03:10:45;;;;;;;2.00;1.33;;;15.20;91.10;;;;;;5093886;28;20459;-81
2021/07/05 03:13:13;;;;;;;3.28;1.60;;;15.30;90.90;;;;;;5075677;28;20394;-81
2021/07/05 03:15:39;;;;;;;1.77;1.57;;;15.30;91.10;;;;;;5075892;28;20386;-81
2021/07/05 03:18:06;;;;;;;3.55;1.58;;;15.20;91.30;;;;;;5093714;28;20370;-80
2021/07/05 03:20:38;;;;;;;3.50;1.43;;;15.30;91.20;;;;;;5075001;28;20463;-80
2021/07/05 03:23:06;;;;;;;3.40;1.70;;;15.30;91.20;;;;;;5074054;28;20777;-81
2021/07/05 03:25:33;;;;;;;3.20;1.90;;;15.40;90.90;;;;;;5092743;28;20454;-80
2021/07/05 03:27:59;;;;;;;3.50;1.48;;;15.30;91.20;;;;;;5075678;28;20378;-79
2021/07/05 03:30:26;;;;;;;2.78;1.52;;;15.30;91.10;;;;;;5093056;28;20381;-79
2021/07/05 03:32:53;;;;;;;3.67;1.60;;;15.40;90.90;;;;;;5093905;28;20746;-80
2021/07/05 03:35:19;;;;;;;2.75;1.60;;;15.40;90.90;;;;;;5093414;28;20377;-80
2021/07/05 03:37:47;;;;;;;2.03;1.45;;;15.40;91.20;;;;;;5093312;28;20390;-80
2021/07/05 03:40:16;;;;;;;5.28;1.50;;;15.40;90.90;;;;;;5093108;28;20366;-80
2021/07/05 03:42:44;;;;;;;2.55;1.63;;;15.50;90.80;;;;;;5093193;28;20374;-81
2021/07/05 03:45:10;;;;;;;3.65;1.55;;;15.40;91.10;;;;;;5093309;28;20420;-79
2021/07/05 03:47:36;;;;;;;3.00;1.67;;;15.50;90.80;;;;;;5093308;28;20371;-80
2021/07/05 03:50:04;;;;;;;5.63;2.45;;;15.50;91.20;;;;;;5074694;28;20393;-80
2021/07/05 03:52:29;;;;;;;6.10;1.60;;;15.50;91.30;;;;;;5074831;28;20481;-80
2021/07/05 03:54:55;;;;;;;2.00;1.67;;;15.60;91.20;;;;;;5093337;28;20450;-80
2021/07/05 03:57:23;;;;;;;3.17;1.33;;;15.60;91.40;;;;;;5092849;28;20376;-81
2021/07/05 03:59:50;;;;;;;4.32;1.42;;;15.60;91.00;;;;;;5093166;28;20449;-80
2021/07/05 04:02:17;;;;;;;5.70;1.70;;;15.70;91.20;;;;;;5092787;28;20386;-81
2021/07/05 04:04:43;;;;;;;1.63;1.52;;;15.70;91.30;;;;;;5092956;28;20398;-80
2021/07/05 04:07:09;;;;;;;3.85;1.40;;;15.70;91.30;;;;;;5074752;28;20413;-81
2021/07/05 04:09:34;;;;;;;2.90;1.60;;;15.70;91.50;;;;;;5092692;28;20485;-81
2021/07/05 04:12:00;;;;;;;4.10;1.60;;;15.70;91.50;;;;;;5074460;28;20402;-80
2021/07/05 04:14:25;;;;;;;4.78;1.35;;;15.70;91.70;;;;;;5092984;28;20378;-80
2021/07/05 04:16:51;;;;;;;2.73;1.60;;;15.80;91.50;;;;;;5074345;28;20409;-81
2021/07/05 04:19:16;;;;;;;3.07;1.80;;;15.80;91.50;;;;;;5092034;28;20382;-80
2021/07/05 04:21:42;;;;;;;2.88;1.23;;;15.80;91.40;;;;;;5092845;28;20776;-80
2021/07/05 04:24:07;;;;;;;4.30;1.33;;;15.90;91.20;;;;;;5074453;28;20382;-80
2021/07/05 04:26:33;;;;;;;3.33;1.65;;;15.90;91.30;;;;;;5092715;28;20374;-79
2021/07/05 04:28:58;;;;;;;2.97;1.63;;;15.90;91.50;;;;;;5091725;28;20378;-81
2021/07/05 04:31:24;;;;;;;2.50;1.50;;;15.90;91.30;;;;;;5092170;28;20402;-80
2021/07/05 04:33:49;;;;;;;3.65;1.40;;;15.90;91.50;;;;;;5074071;28;20386;-80
2021/07/05 04:36:15;;;;;;;4.40;1.50;;;15.90;91.30;;;;;;5074318;28;20386;-80
2021/07/05 04:38:41;;;;;;;1.98;1.30;;;15.90;91.30;;;;;;5092093;28;20378;-80
2021/07/05 04:41:07;;;;;;;5.95;1.65;;;15.90;91.30;;;;;;5092719;28;20374;-81
2021/07/05 04:43:32;;;;;;;3.53;1.33;;;15.90;91.30;;;;;;5092128;28;20859;-80
2021/07/05 04:46:03;;;;;;;5.77;1.60;;;16.00;91.30;;;;;;5091610;28;20436;-79
2021/07/05 04:48:29;;;;;;;4.67;1.47;;;16.00;91.30;;;;;;5092238;28;20525;-79
2021/07/05 04:50:54;;;;;;;3.73;1.57;;;16.00;91.50;;;;;;5091680;28;20394;-81
2021/07/05 04:53:20;;;;;;;7.40;1.73;;;16.00;91.50;;;;;;5092065;28;20370;-80
2021/07/05 04:55:46;;;;;;;3.67;1.80;;;16.00;91.30;;;;;;5090799;28;20382;-80
2021/07/05 04:58:11;;;;;;;6.20;1.70;;;16.00;91.80;;;;;;5073751;28;20420;-75
2021/07/05 05:00:37;;;;;;;7.03;2.57;;;15.90;92.60;;;;;;5091585;28;20398;-78
2021/07/05 05:03:05;;;;;;;4.13;2.42;;;15.90;93.20;;;;;;5092053;28;20427;-76
2021/07/05 05:05:33;;;;;;;9.60;3.45;;;15.70;94.50;;;;;;5091814;28;20382;-74
2021/07/05 05:07:59;;;;;;;3.85;1.75;;;15.50;95.10;;;;;;5091459;28;20374;-76
2021/07/05 05:10:24;;;;;;;3.42;1.40;;;15.40;95.30;;;;;;5091593;28;20384;-74
2021/07/05 05:12:51;;;;;;;1.40;1.20;;;15.30;95.30;;;;;;5091335;28;20378;-73
2021/07/05 05:15:18;;;;;;;2.40;1.20;;;15.20;95.30;;;;;;5091828;28;20416;-75
2021/07/05 05:17:45;;;;;;;4.13;1.67;;;15.20;95.30;;;;;;5091270;28;20377;-76
2021/07/05 05:20:11;;;;;;;4.30;3.28;;;15.00;95.80;;;;;;5091500;28;20473;-76
2021/07/05 05:22:38;;;;;;;5.43;2.60;;;15.10;95.80;;;;;;5091369;28;20374;-74
2021/07/05 05:25:06;;;;;;;3.33;1.88;;;15.10;95.90;;;;;;5091716;28;20421;-75
2021/07/05 05:27:31;;;;;;;2.45;1.63;;;15.20;95.80;;;;;;5065216;28;20412;-77
2021/07/05 05:29:57;;;;;;;6.77;1.97;;;15.20;95.80;;;;;;5091267;28;20374;-76
2021/07/05 05:32:23;;;;;;;4.57;1.97;;;15.10;95.70;;;;;;5090989;28;20436;-75
2021/07/05 05:34:48;;;;;;;5.30;1.52;;;14.90;96.00;;;;;;5091321;28;20830;-75
2021/07/05 05:37:14;;;;;;;4.72;1.60;;;14.60;95.20;;;;;;5090914;28;20847;-76
2021/07/05 05:39:39;;;;;;;6.20;1.60;;;14.50;95.40;;;;;;5090596;28;20726;-75
2021/07/05 05:42:07;;;;;;;4.18;1.20;;;14.50;95.30;;;;;;5090794;28;21611;-74
2021/07/05 05:44:32;;;;;;;1.75;0.90;;;14.10;94.30;;;;;;5090821;28;20702;-75
2021/07/05 05:46:58;;;;;;;3.30;0.90;;;14.00;94.50;;;;;;5091045;28;20374;-76
2021/07/05 05:49:24;;;;;;;4.67;1.50;;;13.90;94.00;;;;;;5090326;28;20765;-74
2021/07/05 05:51:49;;;;;;;5.07;2.37;;;13.70;94.10;;;;;;5091061;28;20455;-74
2021/07/05 05:54:16;;;;;;;5.65;2.70;;;13.80;94.60;;;;;;5072306;28;20726;-74
2021/07/05 05:56:42;;;;;;;3.63;1.90;;;13.70;94.10;;;;;;5089596;28;20393;-76
2021/07/05 05:59:10;;;;;;;6.30;3.47;;;13.70;94.30;;;;;;5088527;28;20378;-76
2021/07/05 06:01:37;;;;;;;8.43;3.67;;;13.60;94.50;;;;;;5089366;28;20465;-76
2021/07/05 06:04:04;;;;;;;6.23;2.00;;;13.70;94.70;;;;;;5070989;28;21010;-77
2021/07/05 06:06:30;;;;;;;6.25;2.25;;;13.80;94.20;;;;;;5089379;28;20366;-77
2021/07/05 06:08:56;;;;;;;9.55;1.70;;;13.90;94.50;;;;;;5089398;28;20385;-77
2021/07/05 06:11:21;;;;;;;2.47;1.40;;;13.80;94.50;;;;;;5089773;28;20398;-77
2021/07/05 06:13:48;;;;;;;7.00;2.43;;;13.90;94.40;;;;;;5090539;28;20459;-77
2021/07/05 06:16:14;;;;;;;6.88;3.80;;;13.90;94.40;;;;;;5090293;28;20439;-77
2021/07/05 06:18:40;;;;;;;9.93;5.15;;;14.00;94.50;;;;;;5089951;28;20374;-77
2021/07/05 06:21:06;;;;;;;9.15;5.15;;;14.30;94.10;;;;;;5090143;28;20511;-78
2021/07/05 06:23:31;;;;;;;3.70;2.10;;;14.40;93.70;;;;;;5090280;28;20544;-77
2021/07/05 06:26:00;;;;;;;5.27;2.40;;;14.10;93.50;;;;;;5090158;28;20469;-76
2021/07/05 06:28:29;;;;;;;5.50;2.80;;;14.10;94.30;;;;;;5072406;28;20401;-77
2021/07/05 06:30:54;;;;;;;6.50;3.33;;;14.00;94.00;;;;;;5089872;28;20494;-76
2021/07/05 06:33:21;;;;;;;9.57;3.13;;;14.00;94.70;;;;;;5089988;28;20790;-77
2021/07/05 06:35:48;;;;;;;3.57;2.30;;;14.30;94.40;;;;;;5072088;28;20719;-77
2021/07/05 06:38:15;;;;;;;3.20;2.10;;;14.10;94.60;;;;;;5090163;28;20869;-76
2021/07/05 06:40:42;;;;;;;4.47;2.40;;;14.40;94.10;;;;;;5090158;28;20461;-77
2021/07/05 06:43:09;;;;;;;4.15;1.88;;;14.60;93.90;;;;;;5090350;28;20369;-77
2021/07/05 06:45:35;;;;;;;5.00;2.60;;;14.60;93.30;;;;;;5090135;28;20370;-76
2021/07/05 06:48:01;;;;;;;6.60;3.35;;;14.30;93.30;;;;;;5089612;28;20752;-76
2021/07/05 06:50:28;;;;;;;5.32;3.40;;;14.30;94.10;;;;;;5089590;28;20831;-78
2021/07/05 06:52:54;;;;;;;6.25;3.35;;;14.50;93.80;;;;;;5071603;28;20421;-78
2021/07/05 06:55:20;;;;;;;8.32;4.10;;;14.40;93.50;;;;;;5090021;28;20408;-76
2021/07/05 06:57:45;;;;;;;7.10;3.67;;;14.50;92.90;;;;;;5089737;28;20385;-77
2021/07/05 07:00:15;;;;;;;8.27;3.80;;;14.60;93.10;;;;;;5089853;28;20388;-77
2021/07/05 07:02:41;;;;;;;10.05;3.58;;;14.70;93.40;;;;;;5090013;28;20392;-77
2021/07/05 07:05:10;;;;;;;6.00;3.45;;;14.80;93.10;;;;;;5072071;28;20477;-78
2021/07/05 07:07:37;;;;;;;10.40;3.50;;;14.80;93.10;;;;;;5071596;28;20394;-77
2021/07/05 07:10:03;;;;;;;5.63;3.10;;;14.70;93.10;;;;;;5089482;28;20463;-76
2021/07/05 07:12:29;;;;;;;8.35;3.60;;;14.80;92.80;;;;;;5089667;28;20410;-79
2021/07/05 07:14:54;;;;;;;5.90;3.17;;;14.80;92.70;;;;;;5089642;28;20448;-76
2021/07/05 07:17:28;;;;;;;7.28;3.40;;;15.00;92.80;;;;;;5089750;28;20374;-77
2021/07/05 07:19:54;;;;;;;5.88;3.17;;;14.90;93.10;;;;;;5093102;28;20370;-77
2021/07/05 07:22:19;;;;;;;12.80;3.30;;;14.80;93.30;;;;;;5093754;28;20821;-76
2021/07/05 07:24:46;;;;;;;6.17;3.10;;;14.90;93.10;;;;;;5093245;28;20376;-77
2021/07/05 07:27:11;;;;;;;6.93;3.10;;;14.70;93.20;;;;;;5071704;28;20392;-81
2021/07/05 07:29:37;;;;;;;6.93;2.70;;;14.80;93.30;;;;;;5091662;28;20370;-76
2021/07/05 07:32:03;;;;;;;6.63;3.33;;;15.00;92.80;;;;;;5092246;28;20737;-77
2021/07/05 07:34:28;;;;;;;7.28;3.30;;;14.90;93.00;;;;;;5092295;28;20818;-77
2021/07/05 07:36:57;;;;;;;11.27;3.10;;;14.80;93.30;;;;;;5074398;28;20425;-76
2021/07/05 07:39:29;;;;;;;5.13;2.72;;;14.80;93.00;;;;;;5092180;28;20468;-76
2021/07/05 07:41:55;;;;;;;7.55;3.08;;;14.90;93.40;;;;;;5092574;28;20454;-76
2021/07/05 07:44:20;;;;;;;8.30;3.20;;;15.00;93.40;;;;;;5092645;28;20386;-77
2021/07/05 07:46:46;;;;;;;5.37;3.13;;;15.20;93.50;;;;;;5092280;28;20366;-77
2021/07/05 07:49:11;;;;;;;5.97;2.60;;;15.10;93.00;;;;;;5073878;28;20418;-78
2021/07/05 07:51:37;;;;;;;8.73;2.83;;;15.00;93.10;;;;;;5092101;28;20409;-76
2021/07/05 07:54:03;;;;;;;7.13;3.17;;;15.10;93.60;;;;;;5092471;28;20378;-77
2021/07/05 07:56:30;;;;;;;5.78;2.60;;;15.20;93.80;;;;;;5091862;28;20376;-77
2021/07/05 07:58:56;;;;;;;5.38;2.30;;;15.10;93.80;;;;;;5091598;28;20398;-76
2021/07/05 08:01:22;;;;;;;8.35;2.65;;;14.90;93.30;;;;;;5092369;28;20722;-77
2021/07/05 08:03:47;;;;;;;4.07;2.10;;;14.90;93.80;;;;;;5091870;28;20382;-75
2021/07/05 08:06:13;;;;;;;5.80;2.63;;;14.80;93.20;;;;;;5092110;28;20371;-75
2021/07/05 08:08:38;;;;;;;6.20;2.85;;;15.00;94.20;;;;;;5091487;28;20374;-77
2021/07/05 08:11:04;;;;;;;6.30;2.60;;;15.10;94.00;;;;;;5087348;28;20409;-77
2021/07/05 08:13:30;;;;;;;7.50;2.67;;;15.10;94.00;;;;;;5072781;28;20390;-75
2021/07/05 08:15:55;;;;;;;6.35;2.70;;;15.00;94.60;;;;;;5091676;28;20378;-76
2021/07/05 08:18:21;;;;;;;6.10;2.60;;;15.10;94.20;;;;;;5091430;28;20389;-76
2021/07/05 08:20:47;;;;;;;8.47;2.70;;;15.20;94.10;;;;;;5092095;28;20858;-76
2021/07/05 08:23:13;;;;;;;6.28;2.60;;;15.20;93.80;;;;;;5091170;28;20686;-79
2021/07/05 08:25:39;;;;;;;9.23;2.50;;;15.40;94.80;;;;;;5091599;28;20408;-76
2021/07/05 08:28:05;;;;;;;5.53;2.53;;;15.30;94.00;;;;;;5091153;28;20448;-76
2021/07/05 08:30:31;;;;;;;9.07;2.70;;;15.40;94.10;;;;;;5089702;28;20449;-76
2021/07/05 08:32:57;;;;;;;11.00;3.20;;;15.40;93.10;;;;;;5091278;28;20874;-76
2021/07/05 08:35:24;;;;;;;8.68;3.13;;;15.60;93.60;;;;;;5090961;28;20378;-79
2021/07/05 08:37:53;;;;;;;10.00;2.97;;;15.50;93.20;;;;;;5091445;28;20386;-76
2021/07/05 08:40:19;;;;;;;14.57;3.53;;;15.50;93.00;;;;;;5090524;28;20381;-77
2021/07/05 08:42:46;;;;;;;8.40;3.50;;;15.50;92.20;;;;;;5091035;28;20726;-76
2021/07/05 08:45:13;;;;;;;10.20;3.20;;;15.80;92.80;;;;;;5091277;28;20377;-77
2021/07/05 08:47:41;;;;;;;8.47;3.80;;;15.80;91.60;;;;;;5091076;28;20423;-77
2021/07/05 08:50:09;;;;;;;10.60;3.95;;;15.80;91.10;;;;;;5090799;28;20445;-77
2021/07/05 08:52:38;;;;;;;9.73;2.83;;;15.90;92.80;;;;;;5090874;28;20406;-76
2021/07/05 08:55:04;;;;;;;7.15;3.20;;;15.90;91.80;;;;;;5090366;28;20885;-80
2021/07/05 08:57:38;;;;;;;6.43;2.90;;;16.00;92.40;;;;;;5090742;28;20409;-78
2021/07/05 09:00:29;;;;;;;10.32;3.40;;;16.00;91.60;;;;;;5090853;28;20459;-77
2021/07/05 09:02:57;;;;;;;8.80;3.33;;;16.10;91.80;;;;;;5089635;28;20397;-77
2021/07/05 09:05:22;;;;;;;9.05;3.20;;;16.10;91.40;;;;;;5090731;28;20878;-77
2021/07/05 09:08:03;;;;;;;8.75;4.20;;;16.30;91.20;;;;;;5090794;28;20445;-78
2021/07/05 09:10:43;;;;;;;8.90;3.95;;;16.30;89.50;;;;;;5090498;28;20370;-78
2021/07/05 09:13:15;;;;;;;10.17;3.87;;;16.40;91.30;;;;;;5072299;28;20983;-77
2021/07/05 09:15:58;;;;;;;7.97;3.87;;;16.50;91.60;;;;;;5090630;28;20370;-77
2021/07/05 09:18:38;;;;;;;10.35;4.18;;;16.50;90.10;;;;;;5090333;28;20706;-77
2021/07/05 09:21:17;;;;;;;7.80;3.33;;;16.50;89.70;;;;;;5090060;28;20386;-78
2021/07/05 09:23:54;;;;;;;7.10;3.85;;;16.30;88.00;;;;;;5106151;28;20426;-77
2021/07/05 09:26:27;;;;;;;9.25;4.03;;;16.40;90.90;;;;;;5105962;28;20394;-78
2021/07/05 09:28:53;;;;;;;8.88;4.60;;;16.60;89.60;;;;;;5089505;28;20381;-79
2021/07/05 09:31:41;;;;;;;8.65;4.40;;;16.60;89.30;;;;;;5089828;28;20492;-77
2021/07/05 09:34:23;;;;;;;8.20;4.30;;;16.70;89.30;;;;;;5090201;28;20404;-78
2021/07/05 09:36:52;;;;;;;8.85;4.57;;;16.80;88.20;;;;;;5089995;28;20386;-80
2021/07/05 09:39:20;;;;;;;8.27;4.60;;;17.00;87.80;;;;;;5089787;28;20454;-79
2021/07/05 09:41:47;;;;;;;9.20;3.95;;;17.00;88.20;;;;;;5089621;28;20482;-84
2021/07/05 09:44:16;;;;;;;9.05;3.83;;;16.90;89.00;;;;;;5071595;28;20480;-78
2021/07/05 09:46:46;;;;;;;10.68;3.97;;;16.80;86.00;;;;;;5089999;28;20866;-79
2021/07/05 09:49:22;;;;;;;9.15;3.65;;;16.90;88.80;;;;;;5089674;28;20864;-79
2021/07/05 09:52:12;;;;;;;7.45;3.33;;;16.90;87.20;;;;;;5105557;28;20735;-78
2021/07/05 09:54:41;;;;;;;7.47;3.00;;;16.80;86.50;;;;;;5089767;28;20374;-78
2021/07/05 09:57:25;;;;;;;6.70;3.00;;;16.70;87.80;;;;;;5089042;28;20878;-78
2021/07/05 10:00:12;;;;;;;5.78;3.35;;;16.60;88.10;;;;;;5071148;28;20750;-79
2021/07/05 10:02:52;;;;;;;9.18;3.30;;;16.60;88.30;;;;;;5088104;28;20401;-78
2021/07/05 10:05:18;;;;;;;6.35;2.95;;;16.60;88.30;;;;;;5071610;28;20386;-79
2021/07/05 10:08:00;;;;;;;8.00;3.70;;;16.50;87.00;;;;;;5089581;28;20389;-79
2021/07/05 10:10:26;;;;;;;9.27;2.40;;;16.50;86.20;;;;;;5089082;28;20858;-77
2021/07/05 10:13:03;;;;;;;8.18;2.60;;;16.60;86.40;;;;;;5104976;28;20521;-78
2021/07/05 10:15:30;;;;;;;10.05;2.97;;;16.60;87.50;;;;;;5088616;28;20938;-80
2021/07/05 10:17:56;;;;;;;8.13;3.35;;;16.80;87.80;;;;;;5089190;28;20381;-78
2021/07/05 10:20:39;;;;;;;5.67;2.87;;;16.90;88.50;;;;;;5088990;28;20441;-79
2021/07/05 10:23:09;;;;;;;6.13;2.30;;;16.90;87.60;;;;;;5070753;28;20565;-79
2021/07/05 10:25:36;;;;;;;6.18;2.55;;;16.80;84.80;;;;;;5071893;28;20715;-80
2021/07/05 10:28:04;;;;;;;4.50;2.67;;;16.70;84.90;;;;;;5070811;28;20877;-81
2021/07/05 10:30:29;;;;;;;10.60;3.03;;;16.80;85.30;;;;;;5088965;28;20858;-80
2021/07/05 10:32:56;;;;;;;8.23;3.10;;;16.80;86.10;;;;;;5088551;28;20424;-80
2021/07/05 10:35:25;;;;;;;5.90;2.55;;;16.70;84.90;;;;;;5070597;28;20477;-80
2021/07/05 10:37:59;;;;;;;6.32;3.25;;;16.70;84.90;;;;;;5067786;28;20446;-79
2021/07/05 10:40:33;;;;;;;6.95;2.78;;;16.70;87.50;;;;;;5088878;28;20473;-80
2021/07/05 10:42:59;;;;;;;7.28;3.00;;;16.70;85.20;;;;;;5088694;28;20378;-80
2021/07/05 10:45:48;;;;;;;8.53;2.70;;;16.80;86.00;;;;;;5088615;28;20441;-79
2021/07/05 10:48:36;;;;;;;6.18;2.90;;;16.80;85.30;;;;;;5086568;28;20374;-80
2021/07/05 10:51:04;;;;;;;7.00;3.00;;;16.90;86.20;;;;;;5087417;28;20750;-80
2021/07/05 10:53:32;;;;;;;6.85;2.78;;;17.00;87.00;;;;;;5089981;28;20382;-79
2021/07/05 10:55:59;;;;;;;5.60;2.90;;;17.10;86.30;;;;;;5092352;28;20838;-80
2021/07/05 10:58:30;;;;;;;9.23;3.00;;;17.10;83.90;;;;;;5092885;28;20480;-79
2021/07/05 11:01:01;;;;;;;8.25;3.13;;;17.20;84.50;;;;;;5090198;28;20680;-80
2021/07/05 11:03:39;;;;;;;8.38;3.20;;;17.40;85.00;;;;;;5092465;28;20471;-80
2021/07/05 11:06:10;;;;;;;7.20;3.00;;;17.40;84.50;;;;;;5093212;28;20386;-80
2021/07/05 11:08:44;;;;;;;9.45;3.55;;;17.50;84.50;;;;;;5090013;28;20802;-80
2021/07/05 11:11:16;;;;;;;8.90;3.42;;;17.40;83.30;;;;;;5092459;28;20929;-81
2021/07/05 11:13:44;;;;;;;9.25;3.88;;;17.60;83.30;;;;;;5074007;28;20890;-79
2021/07/05 11:16:10;;;;;;;7.50;3.55;;;17.60;83.20;;;;;;5092461;28;20775;-80
2021/07/05 11:18:39;;;;;;;9.77;3.83;;;17.70;82.90;;;;;;5073904;28;20392;-80
2021/07/05 11:21:28;;;;;;;5.60;2.90;;;17.80;83.30;;;;;;5092277;28;20432;-80
2021/07/05 11:24:05;;;;;;;6.03;3.05;;;17.90;79.10;;;;;;5072057;28;20790;-77
2021/07/05 11:26:35;;;;;;;5.32;3.05;;;17.90;78.90;;;;;;5072399;28;20383;-80
2021/07/05 11:29:16;;;;;;;7.93;3.53;;;18.00;79.70;;;;;;5071937;28;20860;-79
2021/07/05 11:31:48;;;;;;;7.20;3.37;;;18.30;80.90;;;;;;5071874;28;20399;-80
2021/07/05 11:34:28;;;;;;;7.47;3.72;;;18.30;80.20;;;;;;5072701;28;20689;-81
2021/07/05 11:37:18;;;;;;;6.18;3.95;;;18.30;77.90;;;;;;5071422;28;20883;-79
2021/07/05 11:39:47;;;;;;;4.75;3.30;;;18.20;79.80;;;;;;5071850;28;20434;-80
2021/07/05 11:42:20;;;;;;;7.22;3.30;;;18.20;78.10;;;;;;5071997;28;20387;-80
2021/07/05 11:44:50;;;;;;;6.80;3.10;;;18.20;80.20;;;;;;5071755;28;20376;-79
2021/07/05 11:47:38;;;;;;;6.17;3.50;;;18.20;79.30;;;;;;5087598;28;20752;-80
2021/07/05 11:50:29;;;;;;;6.07;3.83;;;18.00;77.50;;;;;;5071998;28;20391;-77
2021/07/05 11:52:58;;;;;;;7.40;3.58;;;17.90;76.00;;;;;;5053590;28;20911;-82
2021/07/05 11:55:30;;;;;;;8.80;3.72;;;17.90;79.10;;;;;;5071858;28;20383;-81
2021/07/05 11:58:07;;;;;;;9.18;3.58;;;18.10;79.10;;;;;;5066811;28;20397;-81
2021/07/05 12:00:34;;;;;;;9.65;3.97;;;18.10;78.70;;;;;;5073756;28;20862;-81
2021/07/05 12:03:14;;;;;;;7.22;3.63;;;18.30;80.20;;;;;;5091914;28;20412;-80
2021/07/05 12:05:45;;;;;;;10.70;4.30;;;18.40;80.30;;;;;;5092096;28;20698;-77
2021/07/05 12:08:12;;;;;;;7.07;3.60;;;18.50;80.90;;;;;;5091738;28;20427;-79
2021/07/05 12:10:40;;;;;;;6.72;3.40;;;18.50;77.80;;;;;;5073417;28;20409;-79
2021/07/05 12:13:25;;;;;;;7.32;3.38;;;18.40;76.30;;;;;;5091360;28;20435;-80
2021/07/05 12:15:57;;;;;;;7.43;3.33;;;18.60;76.40;;;;;;5073724;28;20382;-79
2021/07/05 12:18:23;;;;;;;5.78;3.65;;;18.70;76.90;;;;;;5091828;28;20386;-82
2021/07/05 12:21:02;;;;;;;7.05;3.60;;;18.60;77.70;;;;;;5091485;28;20384;-78
2021/07/05 12:23:36;;;;;;;8.15;3.70;;;18.70;77.60;;;;;;5091515;28;20390;-79
2021/07/05 12:26:12;;;;;;;6.13;3.40;;;18.80;78.90;;;;;;5091453;28;20390;-80
2021/07/05 12:28:57;;;;;;;8.35;3.90;;;18.80;74.50;;;;;;5091281;28;20956;-79
2021/07/05 12:31:23;;;;;;;6.93;3.30;;;18.70;78.40;;;;;;5090832;28;20437;-79
2021/07/05 12:33:48;;;;;;;9.63;3.60;;;18.70;76.50;;;;;;5091015;28;20870;-79
2021/07/05 12:36:14;;;;;;;10.10;3.92;;;18.80;76.30;;;;;;5091309;28;20386;-79
2021/07/05 12:39:04;;;;;;;6.27;3.53;;;19.00;79.60;;;;;;5072908;28;20382;-80
2021/07/05 12:41:30;;;;;;;6.40;3.67;;;19.10;77.60;;;;;;5091563;28;20378;-79
2021/07/05 12:44:13;;;;;;;9.13;4.00;;;19.20;77.90;;;;;;5091107;28;20795;-78
2021/07/05 12:46:39;;;;;;;7.43;3.55;;;19.30;75.70;;;;;;5091086;28;20374;-78
2021/07/05 12:49:05;;;;;;;6.72;3.13;;;19.20;78.80;;;;;;5105879;28;20400;-78
2021/07/05 12:51:31;;;;;;;7.53;3.22;;;19.10;73.50;;;;;;5090694;28;20398;-79